Time;durP1;ratioP1;P1;durP2;ratioP2;P2;SDS_P1;SDS_P2;PMS_P1;PMS_P2;Temp;Humidity;BMP_temperature;BMP_pressure;BME280_temperature;BME280_humidity;BME280_pressure;Samples;Min_cycle;Max_cycle;Signal;HPM_P1;HPM_P2
2023/04/27 00:02:05;;;;;;;2.97;1.80;;;;;;;6.77;68.75;101271.28;4945801;29;20198;-72
2023/04/27 00:04:34;;;;;;;7.43;2.83;;;;;;;6.82;69.53;101274.31;4954678;29;20568;-71
2023/04/27 00:07:03;;;;;;;3.17;2.45;;;;;;;6.78;69.02;101268.41;4954659;29;20220;-71
2023/04/27 00:09:32;;;;;;;3.25;2.63;;;;;;;6.71;68.76;101266.56;4950427;29;20218;-71
2023/04/27 00:12:01;;;;;;;4.10;2.80;;;;;;;6.68;69.63;101266.94;4943329;29;20210;-71
2023/04/27 00:14:30;;;;;;;5.15;2.72;;;;;;;6.79;69.20;101267.41;4935643;29;20251;-71
2023/04/27 00:17:00;;;;;;;4.93;2.70;;;;;;;6.82;69.05;101261.72;4943228;29;20199;-71
2023/04/27 00:19:30;;;;;;;6.88;2.88;;;;;;;6.76;68.64;101258.84;4953239;29;20199;-71
2023/04/27 00:21:59;;;;;;;7.45;3.22;;;;;;;6.80;69.04;101262.88;4954261;29;20231;-69
2023/04/27 00:24:28;;;;;;;7.78;2.40;;;;;;;6.81;67.56;101265.41;4952933;28;20244;-70
2023/04/27 00:26:57;;;;;;;6.63;2.40;;;;;;;6.81;67.76;101257.34;4956567;28;20244;-72
2023/04/27 00:29:26;;;;;;;4.30;1.92;;;;;;;6.74;67.87;101260.84;4939834;28;20766;-71
2023/04/27 00:31:55;;;;;;;4.28;2.45;;;;;;;6.77;68.31;101265.91;4953012;28;20696;-71
2023/04/27 00:34:25;;;;;;;3.22;2.40;;;;;;;6.65;67.57;101264.56;4936889;28;20223;-71
2023/04/27 00:36:54;;;;;;;4.78;2.03;;;;;;;6.67;67.58;101267.94;4953032;28;20199;-71
2023/04/27 00:39:23;;;;;;;4.32;2.90;;;;;;;6.68;68.18;101267.75;4952391;29;20293;-70
2023/04/27 00:41:52;;;;;;;3.22;2.38;;;;;;;6.75;67.88;101276.00;4934418;29;20223;-72
2023/04/27 00:44:25;;;;;;;3.90;2.67;;;;;;;6.62;68.77;101272.97;4933918;28;20244;-72
2023/04/27 00:46:54;;;;;;;2.22;2.03;;;;;;;6.66;67.95;101271.63;4948257;29;20207;-71
2023/04/27 00:49:26;;;;;;;3.47;2.63;;;;;;;6.62;68.69;101267.59;4969349;28;20204;-71
2023/04/27 00:51:55;;;;;;;6.05;2.67;;;;;;;6.55;68.49;101273.63;4948660;29;20217;-71
2023/04/27 00:54:25;;;;;;;4.70;2.72;;;;;;;6.69;68.73;101279.34;4931818;29;20236;-71
2023/04/27 00:56:54;;;;;;;3.38;2.65;;;;;;;6.60;68.69;101285.72;4934433;29;20223;-70
2023/04/27 00:59:24;;;;;;;5.75;2.20;;;;;;;6.54;68.66;101282.69;4936228;29;20575;-71
2023/04/27 01:01:55;;;;;;;5.80;2.70;;;;;;;6.53;68.69;101283.69;4926799;29;20251;-71
2023/04/27 01:04:25;;;;;;;5.00;2.55;;;;;;;6.46;69.21;101285.38;4922408;29;20228;-70
2023/04/27 01:06:55;;;;;;;5.35;2.72;;;;;;;6.56;69.39;101285.22;4952544;28;20195;-72
2023/04/27 01:09:25;;;;;;;14.55;3.00;;;;;;;6.55;68.61;101287.06;4928405;29;20207;-71
2023/04/27 01:11:55;;;;;;;9.40;2.90;;;;;;;6.60;68.75;101283.88;4946548;29;20702;-71
2023/04/27 01:14:24;;;;;;;7.13;2.65;;;;;;;6.54;69.41;101287.22;4944530;28;20611;-70
2023/04/27 01:16:53;;;;;;;3.08;2.75;;;;;;;6.47;68.26;101292.44;4944640;29;20282;-72
2023/04/27 01:19:22;;;;;;;5.75;2.67;;;;;;;6.41;69.24;101282.34;4929295;29;20215;-71
2023/04/27 01:21:53;;;;;;;6.82;2.72;;;;;;;6.43;69.26;101288.41;4938675;29;20203;-70
2023/04/27 01:24:23;;;;;;;5.90;2.40;;;;;;;6.35;69.58;101287.53;4955675;28;20584;-70
2023/04/27 01:26:52;;;;;;;4.43;2.38;;;;;;;6.33;69.80;101290.41;4945119;29;20195;-71
2023/04/27 01:29:21;;;;;;;4.82;2.00;;;;;;;6.40;69.65;101291.41;4952175;29;20259;-71
2023/04/27 01:31:50;;;;;;;4.43;2.33;;;;;;;6.38;70.00;101293.44;4951483;29;20569;-71
2023/04/27 01:34:19;;;;;;;5.78;3.70;;;;;;;6.28;70.65;101295.44;4947141;28;20814;-70
2023/04/27 01:36:48;;;;;;;2.60;2.10;;;;;;;6.29;70.94;101296.28;4947325;29;20203;-71
2023/04/27 01:39:18;;;;;;;5.88;2.90;;;;;;;6.38;70.85;101293.44;4949629;29;20216;-70
2023/04/27 01:41:48;;;;;;;7.43;2.72;;;;;;;6.40;70.99;101306.69;4957459;28;20240;-71
2023/04/27 01:44:19;;;;;;;5.80;2.45;;;;;;;6.39;70.91;101308.53;4946332;29;20317;-71
2023/04/27 01:46:48;;;;;;;3.20;2.63;;;;;;;6.25;71.34;101305.66;4929991;29;20212;-71
2023/04/27 01:49:18;;;;;;;6.40;4.57;;;;;;;6.37;71.36;101302.50;4956461;29;20586;-71
2023/04/27 01:51:47;;;;;;;4.10;2.15;;;;;;;6.21;71.58;101307.84;4935044;28;20212;-71
2023/04/27 01:54:17;;;;;;;4.30;3.10;;;;;;;6.23;72.06;101310.38;4945872;29;20239;-71
2023/04/27 01:56:47;;;;;;;3.20;2.90;;;;;;;6.29;71.74;101309.72;4936833;29;20210;-71
2023/04/27 01:59:18;;;;;;;8.38;2.50;;;;;;;6.27;71.53;101312.56;4934646;29;20293;-72
2023/04/27 02:01:48;;;;;;;4.32;2.30;;;;;;;6.17;71.68;101311.84;4940228;29;20196;-71
2023/04/27 02:04:17;;;;;;;3.38;2.85;;;;;;;6.18;71.66;101312.72;4954021;28;20244;-71
2023/04/27 02:06:46;;;;;;;5.53;1.98;;;;;;;6.24;71.61;101312.91;4956876;29;20227;-71
2023/04/27 02:09:15;;;;;;;5.53;2.63;;;;;;;6.18;70.90;101313.56;4937787;29;20210;-71
2023/04/27 02:11:44;;;;;;;7.85;2.80;;;;;;;6.17;71.99;101319.91;4947833;29;20203;-71
2023/04/27 02:14:15;;;;;;;3.22;2.10;;;;;;;6.19;72.70;101322.47;4962318;28;20274;-71
2023/04/27 02:16:46;;;;;;;6.32;4.00;;;;;;;6.27;71.04;101326.00;4932477;29;20211;-71
2023/04/27 02:19:16;;;;;;;6.72;2.97;;;;;;;6.23;71.26;101327.34;4952252;29;20595;-72
2023/04/27 02:21:45;;;;;;;3.40;2.42;;;;;;;6.16;71.32;101330.81;4953265;29;20277;-70
2023/04/27 02:24:14;;;;;;;3.10;2.20;;;;;;;6.18;71.36;101326.16;4936863;29;20219;-71
2023/04/27 02:26:45;;;;;;;4.00;2.25;;;;;;;6.09;71.20;101327.97;4954876;29;20203;-72
2023/04/27 02:29:17;;;;;;;4.68;2.80;;;;;;;6.11;71.89;101331.31;4961283;28;20198;-72
2023/04/27 02:31:47;;;;;;;6.30;2.38;;;;;;;6.04;71.62;101327.63;4952806;28;20240;-71
2023/04/27 02:34:16;;;;;;;7.43;2.33;;;;;;;6.03;71.80;101331.28;4935770;29;20231;-71
2023/04/27 02:36:45;;;;;;;6.50;2.38;;;;;;;6.06;71.02;101330.97;4935627;29;20210;-71
2023/04/27 02:39:14;;;;;;;8.57;3.08;;;;;;;5.99;71.41;101329.94;4947025;28;20200;-71
2023/04/27 02:41:44;;;;;;;9.98;2.33;;;;;;;5.98;71.27;101333.63;4938872;29;20213;-70
2023/04/27 02:44:13;;;;;;;7.15;2.70;;;;;;;6.02;71.05;101338.50;4953210;29;20247;-70
2023/04/27 02:46:43;;;;;;;3.47;2.55;;;;;;;5.97;71.58;101327.41;4938825;29;20531;-71
2023/04/27 02:49:13;;;;;;;6.20;2.70;;;;;;;6.01;71.34;101336.81;4954492;28;20202;-71
2023/04/27 02:51:43;;;;;;;5.10;2.90;;;;;;;5.98;71.58;101334.47;4947744;29;20636;-71
2023/04/27 02:54:12;;;;;;;5.55;3.25;;;;;;;5.89;71.56;101337.28;4935272;29;20257;-72
2023/04/27 02:56:41;;;;;;;11.90;3.13;;;;;;;6.02;70.73;101338.50;4950146;29;20203;-70
2023/04/27 02:59:10;;;;;;;7.40;2.47;;;;;;;5.94;70.69;101340.34;4969047;28;20226;-71
2023/04/27 03:01:39;;;;;;;5.60;2.50;;;;;;;5.89;71.21;101348.03;4958434;28;20198;-70
2023/04/27 03:04:12;;;;;;;11.93;3.40;;;;;;;5.85;71.47;101338.59;4954122;28;20247;-71
2023/04/27 03:06:42;;;;;;;4.15;2.13;;;;;;;6.00;70.78;101348.56;4945903;29;20195;-71
2023/04/27 03:09:11;;;;;;;4.43;3.25;;;;;;;5.92;70.85;101350.38;4942595;28;20203;-71
2023/04/27 03:11:41;;;;;;;6.55;3.30;;;;;;;5.88;71.07;101347.19;4952069;28;20195;-71
2023/04/27 03:14:11;;;;;;;6.40;3.40;;;;;;;5.81;71.31;101346.09;4952844;28;20227;-71
2023/04/27 03:16:40;;;;;;;4.05;2.45;;;;;;;5.89;71.44;101345.34;4938747;29;20191;-71
2023/04/27 03:19:11;;;;;;;5.32;1.90;;;;;;;5.83;70.52;101351.31;4958246;28;20251;-71
2023/04/27 03:21:40;;;;;;;11.20;2.60;;;;;;;5.91;70.86;101348.69;4958846;29;20198;-70
2023/04/27 03:24:10;;;;;;;5.70;2.58;;;;;;;5.87;70.72;101347.34;4938419;29;20227;-71
2023/04/27 03:26:39;;;;;;;6.65;2.17;;;;;;;5.80;71.02;101354.34;4942625;29;20273;-71
2023/04/27 03:29:08;;;;;;;11.07;2.60;;;;;;;5.88;70.43;101355.25;4954405;29;20196;-72
2023/04/27 03:31:38;;;;;;;4.68;2.42;;;;;;;5.83;70.58;101356.69;4957548;29;20235;-72
2023/04/27 03:34:07;;;;;;;4.50;2.70;;;;;;;5.89;70.84;101361.47;4955982;28;20323;-72
2023/04/27 03:36:37;;;;;;;6.95;2.95;;;;;;;5.80;71.27;101359.72;4953392;28;20215;-71
2023/04/27 03:39:06;;;;;;;7.43;2.13;;;;;;;5.73;71.76;101362.16;4952519;28;20191;-71
2023/04/27 03:41:36;;;;;;;3.80;2.20;;;;;;;5.78;71.33;101364.38;4936153;29;20566;-70
2023/04/27 03:44:05;;;;;;;3.63;2.45;;;;;;;5.88;71.14;101368.66;4937832;29;20240;-72
2023/04/27 03:46:35;;;;;;;3.78;1.98;;;;;;;5.74;71.62;101373.75;4934275;29;20746;-71
2023/04/27 03:49:05;;;;;;;4.15;2.78;;;;;;;5.75;71.94;101375.44;4937762;29;20265;-71
2023/04/27 03:51:37;;;;;;;8.02;2.30;;;;;;;5.83;71.94;101378.16;4931651;28;20191;-70
2023/04/27 03:54:06;;;;;;;12.13;2.30;;;;;;;5.79;71.13;101382.19;4947930;28;20636;-70
2023/04/27 03:56:35;;;;;;;3.95;2.95;;;;;;;5.78;71.65;101380.50;4937727;29;20253;-72
2023/04/27 03:59:05;;;;;;;11.68;2.97;;;;;;;5.84;71.86;101374.50;4937652;28;20302;-72
2023/04/27 04:01:38;;;;;;;7.65;2.78;;;;;;;5.85;71.46;101381.56;4950431;28;20203;-71
2023/04/27 04:04:07;;;;;;;5.43;2.65;;;;;;;5.85;71.21;101377.03;4950922;29;20300;-70
2023/04/27 04:06:38;;;;;;;7.30;2.17;;;;;;;5.88;71.53;101379.41;4933853;29;20249;-72
2023/04/27 04:09:07;;;;;;;6.90;2.20;;;;;;;5.90;72.15;101384.63;4953854;29;20229;-71
2023/04/27 04:11:37;;;;;;;4.10;2.15;;;;;;;5.99;71.57;101387.19;4929648;29;20203;-71
2023/04/27 04:14:07;;;;;;;7.40;3.22;;;;;;;5.86;71.55;101385.91;4940136;29;20595;-71
2023/04/27 04:16:37;;;;;;;4.95;2.63;;;;;;;5.98;71.59;101390.03;4947381;29;20591;-71
2023/04/27 04:19:06;;;;;;;2.30;1.65;;;;;;;5.96;71.02;101403.63;4951467;29;20234;-71
2023/04/27 04:21:35;;;;;;;4.28;2.35;;;;;;;6.02;70.69;101394.94;4937165;29;20205;-72
2023/04/27 04:24:06;;;;;;;3.13;2.53;;;;;;;5.91;70.77;101402.41;4937349;29;20219;-71
2023/04/27 04:26:36;;;;;;;6.65;3.60;;;;;;;6.02;70.47;101399.47;4950336;29;20195;-71
2023/04/27 04:29:05;;;;;;;6.07;2.60;;;;;;;5.97;70.45;101399.09;4937615;29;20292;-71
2023/04/27 04:31:37;;;;;;;5.30;2.33;;;;;;;6.11;70.27;101399.34;4950853;29;20695;-71
2023/04/27 04:34:07;;;;;;;6.00;2.40;;;;;;;6.10;70.27;101396.81;4946043;29;20589;-71
2023/04/27 04:36:36;;;;;;;9.23;3.42;;;;;;;5.99;70.13;101407.84;4937559;29;20228;-71
2023/04/27 04:39:07;;;;;;;6.35;2.65;;;;;;;6.09;70.59;101405.88;4933554;29;20203;-71
2023/04/27 04:41:37;;;;;;;3.72;2.80;;;;;;;6.18;69.84;101404.91;4949306;28;20272;-70
2023/04/27 04:44:08;;;;;;;10.98;3.40;;;;;;;6.40;69.63;101404.31;4951962;28;20733;-71
2023/04/27 04:46:37;;;;;;;5.90;2.10;;;;;;;6.48;68.94;101401.69;4953914;29;20224;-71
2023/04/27 04:49:07;;;;;;;5.28;3.05;;;;;;;6.34;68.53;101413.03;4933998;29;20220;-74
2023/04/27 04:51:37;;;;;;;5.63;2.22;;;;;;;6.41;68.82;101400.63;4944034;29;20200;-71
2023/04/27 04:54:08;;;;;;;5.88;2.40;;;;;;;6.44;69.65;101411.06;4932961;29;20255;-70
2023/04/27 04:56:37;;;;;;;8.05;2.88;;;;;;;6.71;69.21;101409.13;4935690;29;20199;-71
2023/04/27 04:59:06;;;;;;;10.70;3.00;;;;;;;6.73;68.00;101417.88;4939124;29;20326;-72
2023/04/27 05:01:35;;;;;;;5.22;3.15;;;;;;;6.81;68.38;101423.28;4952192;28;20186;-72
2023/04/27 05:04:05;;;;;;;6.82;3.35;;;;;;;6.96;67.30;101425.16;4941689;29;20212;-71
2023/04/27 05:06:35;;;;;;;6.53;3.53;;;;;;;6.80;67.74;101422.44;4957876;29;20778;-72
2023/04/27 05:09:05;;;;;;;5.55;2.78;;;;;;;7.01;67.62;101424.66;4950628;29;20227;-71
2023/04/27 05:11:35;;;;;;;3.00;2.03;;;;;;;6.87;67.01;101422.63;4941273;29;20193;-71
2023/04/27 05:14:05;;;;;;;6.93;3.30;;;;;;;7.05;67.29;101422.47;4935809;28;20229;-72
2023/04/27 05:16:34;;;;;;;5.18;3.25;;;;;;;7.24;66.95;101425.69;4957251;28;20637;-72
2023/04/27 05:19:04;;;;;;;4.30;2.80;;;;;;;7.26;66.33;101429.03;4954504;29;20193;-72
2023/04/27 05:21:34;;;;;;;6.03;2.85;;;;;;;7.29;67.14;101427.88;4956208;28;20677;-71
2023/04/27 05:24:04;;;;;;;5.13;2.70;;;;;;;7.51;66.15;101432.56;4950348;29;20255;-72
2023/04/27 05:26:34;;;;;;;3.88;3.05;;;;;;;7.47;65.61;101430.38;4952135;28;20189;-71
2023/04/27 05:29:04;;;;;;;7.55;2.70;;;;;;;7.47;65.25;101427.69;4955445;29;20228;-71
2023/04/27 05:31:33;;;;;;;8.70;3.20;;;;;;;7.45;65.88;101427.88;4968793;23;20228;-71
2023/04/27 05:34:02;;;;;;;5.18;3.05;;;;;;;7.72;65.21;101423.97;4939306;28;20233;-71
2023/04/27 05:36:31;;;;;;;2.30;2.10;;;;;;;7.72;64.66;101429.38;4962004;28;20216;-71
2023/04/27 05:39:01;;;;;;;10.18;3.15;;;;;;;7.79;64.54;101433.06;4956371;28;20193;-71
2023/04/27 05:41:31;;;;;;;7.93;3.50;;;;;;;7.69;65.04;101433.25;4958753;28;20194;-71
2023/04/27 05:44:01;;;;;;;7.55;3.50;;;;;;;7.84;63.87;101438.78;4955436;28;20220;-69
2023/04/27 05:46:31;;;;;;;8.13;2.75;;;;;;;7.86;63.95;101439.44;4953564;28;20200;-70
2023/04/27 05:49:00;;;;;;;6.18;2.47;;;;;;;7.79;64.07;101441.16;4958523;28;20199;-72
2023/04/27 05:51:30;;;;;;;9.88;3.05;;;;;;;7.81;63.74;101433.72;4961060;28;20208;-71
2023/04/27 05:54:00;;;;;;;3.42;3.10;;;;;;;7.78;64.27;101434.91;4954192;29;20227;-71
2023/04/27 05:56:30;;;;;;;6.00;3.08;;;;;;;7.64;63.42;101438.31;4951521;29;20223;-72
2023/04/27 05:59:01;;;;;;;10.13;2.83;;;;;;;7.51;63.58;101442.50;4956673;29;20200;-71
2023/04/27 06:01:31;;;;;;;5.45;3.28;;;;;;;7.67;64.16;101447.88;4957696;28;20197;-72
2023/04/27 06:04:00;;;;;;;7.25;3.50;;;;;;;7.56;63.93;101440.16;4953103;29;20220;-69
2023/04/27 06:06:32;;;;;;;7.63;2.83;;;;;;;7.47;63.96;101451.94;4946849;29;20252;-69
2023/04/27 06:09:02;;;;;;;3.28;2.17;;;;;;;7.65;63.27;101456.13;4964495;28;20699;-70
2023/04/27 06:11:32;;;;;;;6.13;2.58;;;;;;;8.06;63.19;101454.22;4941510;29;20229;-72
2023/04/27 06:14:02;;;;;;;6.22;3.58;;;;;;;8.10;62.03;101447.47;4956868;28;20221;-73
2023/04/27 06:16:31;;;;;;;3.75;3.13;;;;;;;8.37;61.65;101454.34;4955125;28;20301;-72
2023/04/27 06:19:01;;;;;;;4.85;2.45;;;;;;;8.12;60.88;101458.09;4948771;28;20193;-70
2023/04/27 06:21:33;;;;;;;4.25;2.65;;;;;;;7.91;60.66;101458.63;4956962;28;20230;-70
2023/04/27 06:24:03;;;;;;;7.78;3.92;;;;;;;8.00;61.25;101460.28;4956749;28;20221;-69
2023/04/27 06:26:32;;;;;;;6.50;2.47;;;;;;;7.57;61.11;101463.38;4938288;29;20599;-70
2023/04/27 06:29:03;;;;;;;7.45;3.63;;;;;;;7.46;61.70;101461.00;4942352;29;20209;-74
2023/04/27 06:31:32;;;;;;;3.97;3.40;;;;;;;7.65;61.79;101466.09;4949724;29;20205;-71
2023/04/27 06:34:03;;;;;;;5.97;2.90;;;;;;;7.81;60.71;101466.91;4945212;29;20224;-70
2023/04/27 06:36:32;;;;;;;3.00;2.40;;;;;;;8.15;60.40;101463.97;4954331;28;20230;-71
2023/04/27 06:39:01;;;;;;;10.55;3.15;;;;;;;8.20;59.61;101467.00;4950860;29;20280;-72
2023/04/27 06:41:30;;;;;;;5.55;2.13;;;;;;;8.28;59.69;101463.41;4950623;28;20284;-69
2023/04/27 06:43:59;;;;;;;5.18;2.63;;;;;;;8.36;57.93;101459.91;4936536;29;20221;-72
2023/04/27 06:46:30;;;;;;;7.10;3.63;;;;;;;8.13;59.03;101463.28;4948600;28;20224;-68
2023/04/27 06:49:00;;;;;;;6.90;3.00;;;;;;;8.51;57.26;101468.94;4954235;29;20201;-69
2023/04/27 06:51:29;;;;;;;3.13;2.30;;;;;;;8.61;57.35;101465.03;4942866;28;20205;-69
2023/04/27 06:53:58;;;;;;;6.50;2.80;;;;;;;8.74;56.43;101467.16;4936677;29;20702;-72
2023/04/27 06:56:27;;;;;;;4.28;2.08;;;;;;;8.81;56.21;101467.31;4935733;28;20678;-70
2023/04/27 06:58:56;;;;;;;2.40;1.80;;;;;;;8.41;57.04;101468.31;4949384;28;20231;-70
2023/04/27 07:01:25;;;;;;;4.70;1.95;;;;;;;8.48;57.40;101470.13;4950682;28;20198;-69
2023/04/27 07:03:56;;;;;;;4.72;2.00;;;;;;;8.42;57.09;101475.41;4956711;29;20303;-71
2023/04/27 07:06:27;;;;;;;3.53;1.80;;;;;;;8.70;56.01;101471.22;4954795;29;20242;-70
2023/04/27 07:08:56;;;;;;;5.25;2.47;;;;;;;8.88;55.75;101466.41;4951929;29;20198;-70
2023/04/27 07:11:25;;;;;;;2.58;2.10;;;;;;;9.05;55.08;101476.06;4955299;28;20598;-69
2023/04/27 07:13:55;;;;;;;4.70;2.85;;;;;;;9.10;55.32;101470.97;4951569;29;20225;-72
2023/04/27 07:16:24;;;;;;;5.97;2.38;;;;;;;9.51;54.35;101468.00;4947220;28;20297;-68
2023/04/27 07:18:55;;;;;;;4.40;2.95;;;;;;;9.41;52.88;101472.78;4954540;28;20193;-70
2023/04/27 07:21:24;;;;;;;5.38;2.83;;;;;;;9.88;52.60;101473.41;4953028;28;20677;-70
2023/04/27 07:23:53;;;;;;;12.25;2.80;;;;;;;9.67;52.06;101475.97;4950530;29;20219;-71
2023/04/27 07:26:23;;;;;;;3.30;1.98;;;;;;;10.27;51.18;101475.06;4946663;28;20191;-70
2023/04/27 07:28:53;;;;;;;5.93;2.42;;;;;;;10.62;50.50;101468.06;4951255;28;20198;-72
2023/04/27 07:31:23;;;;;;;4.78;2.92;;;;;;;10.54;50.02;101471.72;4946592;29;20202;-72
2023/04/27 07:33:53;;;;;;;6.33;2.80;;;;;;;10.45;50.29;101472.84;4948923;28;20238;-73
2023/04/27 07:36:24;;;;;;;2.70;1.90;;;;;;;10.08;49.89;101472.88;4950146;28;20444;-70
2023/04/27 07:38:53;;;;;;;3.17;2.72;;;;;;;9.92;50.61;101476.59;4950511;28;20194;-71
2023/04/27 07:41:22;;;;;;;2.33;1.77;;;;;;;9.96;50.19;101473.34;4951660;28;20565;-71
2023/04/27 07:43:51;;;;;;;3.67;1.90;;;;;;;10.17;49.97;101475.31;4949898;28;20241;-72
2023/04/27 07:46:21;;;;;;;10.30;4.22;;;;;;;10.18;50.38;101481.59;4942642;29;20295;-71
2023/04/27 07:48:50;;;;;;;6.60;3.58;;;;;;;10.08;50.37;101483.69;4946781;29;20245;-71
2023/04/27 07:51:27;;;;;;;5.88;2.45;;;;;;;10.12;50.42;101483.13;4950118;29;20233;-70
2023/04/27 07:53:57;;;;;;;9.43;2.42;;;;;;;10.53;49.73;101480.00;4951224;28;20261;-71
2023/04/27 07:56:26;;;;;;;2.95;2.20;;;;;;;10.20;49.11;101490.38;4948881;29;20262;-69
2023/04/27 07:58:56;;;;;;;4.60;2.15;;;;;;;9.96;49.81;101486.00;4951606;28;20266;-71
2023/04/27 08:01:25;;;;;;;4.18;1.80;;;;;;;9.70;50.39;101491.81;4953733;29;20695;-70
2023/04/27 08:03:55;;;;;;;6.35;2.10;;;;;;;9.75;50.06;101486.72;4948116;28;20226;-69
2023/04/27 08:06:27;;;;;;;4.88;2.53;;;;;;;9.61;49.87;101495.63;4949802;29;20245;-71
2023/04/27 08:08:59;;;;;;;3.28;2.53;;;;;;;9.21;51.35;101493.19;4947929;29;20208;-70
2023/04/27 08:11:29;;;;;;;7.75;1.80;;;;;;;10.00;50.38;101495.44;4951691;29;20189;-71
2023/04/27 08:13:58;;;;;;;8.80;3.97;;;;;;;10.07;50.38;101484.72;4935901;29;20240;-72
2023/04/27 08:16:28;;;;;;;4.80;2.30;;;;;;;11.02;49.49;101480.22;4948687;28;20202;-69
2023/04/27 08:18:57;;;;;;;7.43;4.53;;;;;;;10.89;47.67;101486.31;4951010;28;20190;-71
2023/04/27 08:21:31;;;;;;;3.27;2.40;;;;;;;11.06;47.40;101489.63;4947634;29;20426;-70
2023/04/27 08:24:00;;;;;;;3.67;2.80;;;;;;;11.06;46.70;101495.03;4953410;28;21007;-69
2023/04/27 08:26:30;;;;;;;4.17;2.53;;;;;;;11.58;45.50;101509.16;4948233;28;20436;-71
2023/04/27 08:28:59;;;;;;;10.30;2.90;;;;;;;11.08;46.15;101495.72;4952992;29;20414;-70
2023/04/27 08:31:36;;;;;;;2.90;2.13;;;;;;;10.99;47.09;101488.72;4949179;28;20443;-71
2023/04/27 08:34:05;;;;;;;7.00;2.20;;;;;;;11.06;46.76;101495.03;4952891;29;20433;-71
2023/04/27 08:36:36;;;;;;;6.57;3.63;;;;;;;10.30;48.03;101502.59;4948837;28;20466;-69
2023/04/27 08:39:06;;;;;;;3.03;2.73;;;;;;;10.09;48.46;101504.31;4959716;29;20443;-72
2023/04/27 08:41:42;;;;;;;5.53;2.97;;;;;;;10.04;48.59;101492.19;4955496;28;20431;-70
2023/04/27 08:44:11;;;;;;;6.03;2.23;;;;;;;10.27;48.06;101496.69;4952143;28;20552;-71
2023/04/27 08:46:40;;;;;;;9.73;4.53;;;;;;;9.99;48.82;101494.59;4945820;29;20430;-71
2023/04/27 08:49:10;;;;;;;7.33;2.47;;;;;;;10.70;47.33;101492.28;4944040;28;20410;-71
2023/04/27 08:51:43;;;;;;;4.20;2.60;;;;;;;10.75;45.96;101495.28;4952095;28;20968;-72
2023/04/27 08:54:12;;;;;;;8.20;4.73;;;;;;;11.24;46.62;101492.75;4952589;28;20952;-72
2023/04/27 08:56:41;;;;;;;3.40;2.80;;;;;;;11.19;45.58;101493.31;4952477;28;20442;-72
2023/04/27 08:59:16;;;;;;;10.27;2.87;;;;;;;10.90;46.20;101496.94;4952873;29;20420;-72
2023/04/27 09:01:47;;;;;;;7.23;2.73;;;;;;;10.95;46.62;101500.94;4949398;28;20429;-71
2023/04/27 09:04:18;;;;;;;7.07;2.70;;;;;;;10.36;45.71;101495.63;4932736;29;20470;-72
2023/04/27 09:06:49;;;;;;;6.17;3.90;;;;;;;10.39;46.68;101497.94;4950250;28;20435;-71
2023/04/27 09:09:26;;;;;;;4.17;2.40;;;;;;;10.51;47.72;101493.72;4941972;28;20507;-70
2023/04/27 09:11:55;;;;;;;5.47;2.27;;;;;;;10.33;47.41;101493.25;4944370;28;20531;-73
2023/04/27 09:14:25;;;;;;;6.50;3.60;;;;;;;10.44;47.70;101495.50;4954132;28;20432;-72
2023/04/27 09:16:58;;;;;;;2.50;2.10;;;;;;;10.47;46.72;101500.53;4944809;28;20449;-73
2023/04/27 09:19:29;;;;;;;4.93;2.43;;;;;;;10.42;46.46;101494.84;4951343;29;20442;-72
2023/04/27 09:22:07;;;;;;;6.57;2.80;;;;;;;10.69;46.26;101496.06;4949109;29;20417;-70
2023/04/27 09:24:37;;;;;;;4.20;2.50;;;;;;;10.96;45.93;101503.47;4948828;28;20456;-71
2023/04/27 09:27:08;;;;;;;3.57;2.07;;;;;;;10.57;45.33;101497.53;4934854;29;20556;-72
2023/04/27 09:29:38;;;;;;;4.93;2.83;;;;;;;10.38;46.58;101504.34;4947056;29;20415;-73
2023/04/27 09:32:19;;;;;;;4.55;3.13;;;;;;;10.62;47.10;101503.22;4944142;28;20294;-71
2023/04/27 09:34:49;;;;;;;7.43;4.10;;;;;;;10.85;47.32;101491.25;4932944;29;20223;-71
2023/04/27 09:37:19;;;;;;;3.67;3.00;;;;;;;11.17;45.33;101483.72;4946769;28;20477;-72
2023/04/27 09:39:49;;;;;;;6.57;2.60;;;;;;;11.20;43.20;101488.75;4949042;28;20437;-69
2023/04/27 09:42:19;;;;;;;5.40;2.50;;;;;;;11.52;42.17;101488.22;4944805;28;20555;-71
2023/04/27 09:44:50;;;;;;;3.33;2.30;;;;;;;11.18;42.26;101469.16;4951379;28;20556;-69
2023/04/27 09:47:19;;;;;;;9.03;2.00;;;;;;;11.10;42.85;101482.78;4946862;29;20499;-71
2023/04/27 09:49:49;;;;;;;5.20;2.70;;;;;;;10.67;44.16;101474.59;4943293;28;20827;-69
2023/04/27 09:52:20;;;;;;;2.47;1.60;;;;;;;10.63;44.80;101476.00;4948418;28;20459;-71
2023/04/27 09:54:50;;;;;;;7.20;2.70;;;;;;;10.74;45.08;101478.22;4947924;29;20447;-70
2023/04/27 09:57:32;;;;;;;2.87;2.20;;;;;;;10.58;46.07;101477.56;4953543;28;20464;-72
2023/04/27 10:00:13;;;;;;;4.47;2.80;;;;;;;10.67;46.56;101471.03;4950346;28;20417;-72
2023/04/27 10:02:52;;;;;;;4.67;2.60;;;;;;;10.76;46.48;101457.19;4951944;28;20410;-70
2023/04/27 10:05:35;;;;;;;11.07;3.23;;;;;;;11.39;46.34;101468.31;4957143;28;20424;-72
2023/04/27 10:08:07;;;;;;;6.20;2.10;;;;;;;12.02;45.54;101464.69;4949712;29;20545;-74
2023/04/27 10:10:48;;;;;;;6.23;2.30;;;;;;;12.61;42.88;101460.47;4953281;28;20471;-70
2023/04/27 10:13:31;;;;;;;3.20;2.73;;;;;;;12.86;43.15;101459.94;4955337;28;20435;-71
2023/04/27 10:16:16;;;;;;;7.53;4.20;;;;;;;13.10;40.52;101462.13;4951441;29;20798;-71
2023/04/27 10:18:52;;;;;;;8.43;2.60;;;;;;;13.54;40.30;101458.06;4945504;28;20470;-71
2023/04/27 10:21:22;;;;;;;4.50;2.70;;;;;;;13.65;38.56;101452.81;4952879;28;20477;-70
2023/04/27 10:23:53;;;;;;;3.60;2.07;;;;;;;13.61;38.35;101450.72;4961523;28;20513;-69
2023/04/27 10:26:25;;;;;;;3.40;2.60;;;;;;;12.76;39.28;101444.03;4958045;28;20540;-73
2023/04/27 10:29:07;;;;;;;5.70;2.30;;;;;;;12.01;41.28;101452.16;4958000;28;20486;-70
2023/04/27 10:31:43;;;;;;;5.90;2.43;;;;;;;12.00;41.83;101458.66;4954923;28;20477;-70
2023/04/27 10:34:17;;;;;;;3.30;2.30;;;;;;;11.54;42.93;101452.81;4950840;28;20429;-73
2023/04/27 10:36:49;;;;;;;2.83;2.27;;;;;;;11.83;41.74;101451.84;4943181;28;20450;-71
2023/04/27 10:39:24;;;;;;;2.07;1.87;;;;;;;11.91;39.61;101455.22;4952303;28;20876;-73
2023/04/27 10:42:12;;;;;;;2.13;1.37;;;;;;;12.19;38.60;101452.53;4950228;28;20434;-71
2023/04/27 10:44:41;;;;;;;7.53;1.60;;;;;;;12.37;36.87;101450.13;4959553;28;20483;-72
2023/04/27 10:47:15;;;;;;;5.07;1.60;;;;;;;12.20;37.51;101454.19;4965857;28;20471;-72
2023/04/27 10:49:44;;;;;;;3.07;1.73;;;;;;;12.50;36.47;101449.34;4956343;28;20968;-74
2023/04/27 10:52:14;;;;;;;2.80;1.93;;;;;;;12.81;36.70;101446.16;4959657;28;20420;-72
2023/04/27 10:54:47;;;;;;;4.73;1.77;;;;;;;12.43;36.66;101453.91;4960591;29;20523;-71
2023/04/27 10:57:16;;;;;;;3.70;1.40;;;;;;;12.32;37.41;101447.16;4952795;28;20474;-74
2023/04/27 10:59:50;;;;;;;3.73;1.57;;;;;;;12.25;37.61;101457.13;4959433;28;20886;-72
2023/04/27 11:02:27;;;;;;;3.87;2.00;;;;;;;11.89;38.62;101454.59;4953209;29;20483;-72
2023/04/27 11:04:57;;;;;;;3.70;1.70;;;;;;;11.95;39.38;101455.69;4959329;29;20467;-71
2023/04/27 11:07:28;;;;;;;2.13;1.60;;;;;;;11.71;38.97;101452.31;4959669;28;20458;-70
2023/04/27 11:09:58;;;;;;;2.80;1.80;;;;;;;11.57;39.67;101452.44;4937412;29;20529;-73
2023/04/27 11:12:27;;;;;;;2.37;1.60;;;;;;;11.49;40.33;101452.56;4956995;29;20439;-71
2023/04/27 11:14:58;;;;;;;3.43;2.20;;;;;;;11.23;40.53;101461.28;4959324;28;20683;-71
2023/04/27 11:17:32;;;;;;;5.07;3.20;;;;;;;11.02;40.98;101469.38;4939727;29;20494;-75
2023/04/27 11:20:02;;;;;;;4.93;2.30;;;;;;;11.07;40.98;101466.94;4955383;28;20852;-72
2023/04/27 11:22:31;;;;;;;5.00;1.60;;;;;;;10.95;40.30;101463.88;4956619;28;20754;-72
2023/04/27 11:25:02;;;;;;;6.73;2.60;;;;;;;10.98;40.37;101468.09;4955771;28;20459;-74
2023/04/27 11:27:39;;;;;;;3.83;2.30;;;;;;;10.61;40.76;101467.22;4957087;28;20544;-73
2023/04/27 11:30:21;;;;;;;2.83;2.07;;;;;;;10.51;41.63;101472.06;4956565;28;20560;-72
2023/04/27 11:32:52;;;;;;;6.13;2.20;;;;;;;10.78;41.46;101470.56;4949869;29;20425;-69
2023/04/27 11:35:32;;;;;;;3.63;2.00;;;;;;;10.93;41.83;101475.94;4958708;28;20778;-71
2023/04/27 11:38:02;;;;;;;4.63;1.80;;;;;;;11.24;41.58;101477.31;4957970;29;20498;-73
2023/04/27 11:40:34;;;;;;;5.47;1.77;;;;;;;11.84;39.66;101472.50;4959421;29;20441;-73
2023/04/27 11:43:04;;;;;;;3.47;1.93;;;;;;;12.00;39.25;101481.19;4956389;28;20489;-71
2023/04/27 11:45:33;;;;;;;3.37;1.77;;;;;;;12.32;38.91;101484.31;4949365;29;20433;-72